createdAt,value
2022-11-10T00:00:43.136Z,82.28
2022-11-10T00:01:44.943Z,82.35
2022-11-10T00:02:46.908Z,82.79
2022-11-10T00:03:49.007Z,82.69
2022-11-10T00:04:50.905Z,82.51
2022-11-10T00:05:52.631Z,82.93
2022-11-10T00:06:54.552Z,82.73
2022-11-10T00:07:56.700Z,82.79
2022-11-10T00:08:58.633Z,83.14
2022-11-10T00:10:00.516Z,82.97
2022-11-10T00:11:09.384Z,83.04
2022-11-10T00:12:11.272Z,83.46
2022-11-10T00:13:13.050Z,82.86
2022-11-10T00:14:33.622Z,83.06
2022-11-10T00:15:53.816Z,82.78
2022-11-10T00:17:01.239Z,82.75
2022-11-10T00:18:03.924Z,83.16
2022-11-10T00:19:05.749Z,82.75
2022-11-10T00:20:08.064Z,82.95
2022-11-10T00:21:10.851Z,82.79
2022-11-10T00:22:12.658Z,83.20
2022-11-10T00:23:14.430Z,83.19
2022-11-10T00:24:16.273Z,82.86
2022-11-10T00:25:18.097Z,83.46
2022-11-10T00:26:20.360Z,83.10
2022-11-10T00:27:22.170Z,83.14
2022-11-10T00:28:23.957Z,83.36
2022-11-10T00:29:25.814Z,83.50
2022-11-10T00:30:27.616Z,83.62
2022-11-10T00:31:29.547Z,83.46
2022-11-10T00:32:31.396Z,84.13
2022-11-10T00:33:37.157Z,84.35
2022-11-10T00:34:38.986Z,84.26
2022-11-10T00:35:40.764Z,84.79
2022-11-10T00:36:43.315Z,84.82
2022-11-10T00:37:45.096Z,85.11
2022-11-10T00:38:46.987Z,84.89
2022-11-10T00:39:48.903Z,84.95
2022-11-10T00:40:50.712Z,85.49
2022-11-10T00:41:52.567Z,84.99
2022-11-10T00:42:54.436Z,84.92
2022-11-10T00:43:56.471Z,85.16
2022-11-10T00:44:58.356Z,84.80
2022-11-10T00:46:00.217Z,84.98
2022-11-10T00:47:02.079Z,84.64
2022-11-10T00:48:03.935Z,85.32
2022-11-10T00:49:05.767Z,85.12
2022-11-10T00:50:07.976Z,85.25
2022-11-10T00:51:15.536Z,85.41
2022-11-10T00:52:17.317Z,85.92
2022-11-10T00:53:19.695Z,85.78
2022-11-10T00:54:21.937Z,85.37
2022-11-10T00:55:23.719Z,85.88
2022-11-10T00:56:25.751Z,85.77
2022-11-10T00:57:27.555Z,85.68
2022-11-10T00:58:29.412Z,85.59
2022-11-10T00:59:31.179Z,85.55
2022-11-10T01:00:33.070Z,85.56
2022-11-10T01:01:35.020Z,85.78
2022-11-10T01:02:36.872Z,85.64
2022-11-10T01:03:38.842Z,85.71
2022-11-10T01:04:40.646Z,85.86
2022-11-10T01:05:43.035Z,86.00
2022-11-10T01:06:44.987Z,86.22
2022-11-10T01:07:46.841Z,86.27
2022-11-10T01:08:48.752Z,85.49
2022-11-10T01:09:50.563Z,86.08
2022-11-10T01:10:52.340Z,85.26
2022-11-10T01:11:54.119Z,85.63
2022-11-10T01:12:55.890Z,85.24
2022-11-10T01:13:57.848Z,85.36
2022-11-10T01:14:59.606Z,85.83
2022-11-10T01:16:08.408Z,86.12
2022-11-10T01:17:10.138Z,86.34
2022-11-10T01:18:11.948Z,85.90
2022-11-10T01:19:13.829Z,85.12
2022-11-10T01:20:15.700Z,85.56
2022-11-10T01:21:17.734Z,85.56
2022-11-10T01:22:19.698Z,85.32
2022-11-10T01:23:21.789Z,85.96
2022-11-10T01:24:23.882Z,84.86
2022-11-10T01:25:25.737Z,84.86
2022-11-10T01:26:27.588Z,84.50
2022-11-10T01:27:29.400Z,84.76
2022-11-10T01:28:32.031Z,84.76
2022-11-10T01:29:33.876Z,86.48
2022-11-10T01:30:35.728Z,85.99
2022-11-10T01:31:37.688Z,85.95
2022-11-10T01:32:40.526Z,86.25
2022-11-10T01:33:42.461Z,85.64
2022-11-10T01:34:44.369Z,85.76
2022-11-10T01:35:46.217Z,86.03
2022-11-10T01:36:48.033Z,86.90
2022-11-10T01:37:51.821Z,86.48
2022-11-10T01:38:53.819Z,86.51
2022-11-10T01:39:55.810Z,85.85
2022-11-10T01:40:58.281Z,86.19
2022-11-10T01:42:00.055Z,86.50
2022-11-10T01:43:01.919Z,86.32
2022-11-10T01:44:33.058Z,85.58
2022-11-10T01:45:44.258Z,86.13
2022-11-10T01:46:46.051Z,85.25
2022-11-10T01:47:48.256Z,85.51
2022-11-10T01:48:52.492Z,85.39
2022-11-10T01:49:54.567Z,85.08
2022-11-10T01:50:58.166Z,85.93
2022-11-10T01:52:13.912Z,84.86
2022-11-10T01:53:19.246Z,85.00
2022-11-10T01:54:24.092Z,85.24
2022-11-10T01:55:26.289Z,84.92
2022-11-10T01:56:30.208Z,85.06
2022-11-10T01:57:32.505Z,85.45
2022-11-10T01:58:40.418Z,84.44
2022-11-10T01:59:50.977Z,85.56
2022-11-10T02:00:53.357Z,84.69
2022-11-10T02:01:57.465Z,85.50
2022-11-10T02:03:37.574Z,85.50
2022-11-10T02:04:40.242Z,85.74
2022-11-10T02:05:43.966Z,86.04
2022-11-10T02:06:46.993Z,85.07
2022-11-10T02:07:49.676Z,85.46
2022-11-10T02:08:51.837Z,85.56
2022-11-10T02:09:53.950Z,85.24
2022-11-10T02:10:55.712Z,84.91
2022-11-10T02:11:57.797Z,85.08
2022-11-10T02:12:59.725Z,84.75
2022-11-10T02:14:02.051Z,85.36
2022-11-10T02:15:08.385Z,84.73
2022-11-10T02:16:11.031Z,85.08
2022-11-10T02:17:13.124Z,85.99
2022-11-10T02:18:14.956Z,85.76
2022-11-10T02:19:25.032Z,85.50
2022-11-10T02:20:26.835Z,85.77
2022-11-10T02:21:28.776Z,85.68
2022-11-10T02:22:34.027Z,85.73
2022-11-10T02:23:35.886Z,85.09
2022-11-10T02:24:37.752Z,85.15
2022-11-10T02:25:39.562Z,85.21
2022-11-10T02:26:44.906Z,85.01
2022-11-10T02:27:46.791Z,85.08
2022-11-10T02:28:49.185Z,86.22
2022-11-10T02:29:50.985Z,86.45
2022-11-10T02:30:53.351Z,86.48
2022-11-10T02:31:55.343Z,86.34
2022-11-10T02:32:57.137Z,86.36
2022-11-10T02:33:58.978Z,86.04
2022-11-10T02:35:00.825Z,85.58
2022-11-10T02:36:02.981Z,86.41
2022-11-10T02:37:05.027Z,86.60
2022-11-10T02:38:06.926Z,85.83
2022-11-10T02:39:08.806Z,86.07
2022-11-10T02:40:10.780Z,86.26
2022-11-10T02:41:12.583Z,86.43
2022-11-10T02:42:14.487Z,85.92
2022-11-10T02:43:17.373Z,86.46
2022-11-10T02:44:19.206Z,85.73
2022-11-10T02:45:21.070Z,85.54
2022-11-10T02:46:22.911Z,86.26
2022-11-10T02:47:24.687Z,85.91
2022-11-10T02:48:26.547Z,85.62
2022-11-10T02:49:28.400Z,86.27
2022-11-10T02:50:30.226Z,86.06
2022-11-10T02:51:31.995Z,85.60
2022-11-10T02:52:33.861Z,86.08
2022-11-10T02:53:35.632Z,85.78
2022-11-10T02:54:37.511Z,86.19
2022-11-10T02:55:39.338Z,85.71
2022-11-10T02:56:41.169Z,85.72
2022-11-10T02:57:42.967Z,85.50
2022-11-10T02:58:44.753Z,86.31
2022-11-10T02:59:46.660Z,85.37
2022-11-10T03:00:48.433Z,85.74
2022-11-10T03:01:50.330Z,85.68
2022-11-10T03:02:59.071Z,85.35
2022-11-10T03:04:00.869Z,85.94
2022-11-10T03:05:02.736Z,85.75
2022-11-10T03:06:04.578Z,85.27
2022-11-10T03:07:06.511Z,85.21
2022-11-10T03:08:08.448Z,85.66
2022-11-10T03:09:10.301Z,85.26
2022-11-10T03:10:12.023Z,86.00
2022-11-10T03:11:13.774Z,86.92
2022-11-10T03:12:15.678Z,87.66
2022-11-10T03:13:17.606Z,87.01
2022-11-10T03:14:19.370Z,86.70
2022-11-10T03:15:21.655Z,87.15
2022-11-10T03:16:23.517Z,87.11
2022-11-10T03:17:25.347Z,86.36
2022-11-10T03:18:27.160Z,86.67
2022-11-10T03:19:28.987Z,86.26
2022-11-10T03:20:30.819Z,86.04
2022-11-10T03:21:32.604Z,86.93
2022-11-10T03:22:34.543Z,87.21
2022-11-10T03:23:36.471Z,88.62
2022-11-10T03:24:38.250Z,88.54
2022-11-10T03:25:40.140Z,88.16
2022-11-10T03:26:42.002Z,87.48
2022-11-10T03:27:43.864Z,87.34
2022-11-10T03:28:45.673Z,87.87
2022-11-10T03:29:47.518Z,87.62
2022-11-10T03:30:49.438Z,87.55
2022-11-10T03:31:51.302Z,87.17
2022-11-10T03:32:53.190Z,87.70
2022-11-10T03:33:54.962Z,87.28
2022-11-10T03:34:56.808Z,87.02
2022-11-10T03:35:58.663Z,87.27
2022-11-10T03:37:00.452Z,86.88
2022-11-10T03:38:02.334Z,87.25
2022-11-10T03:39:04.595Z,86.77
2022-11-10T03:40:06.698Z,86.63
2022-11-10T03:41:23.869Z,87.48
2022-11-10T03:42:25.762Z,86.49
2022-11-10T03:43:27.577Z,86.21
2022-11-10T03:44:29.490Z,86.26
2022-11-10T03:45:31.625Z,86.35
2022-11-10T03:46:33.459Z,86.94
2022-11-10T03:47:35.222Z,86.20
2022-11-10T03:48:37.677Z,86.77
2022-11-10T03:49:39.531Z,86.36
2022-11-10T03:50:42.179Z,86.38
2022-11-10T03:51:44.092Z,86.68
2022-11-10T03:52:47.111Z,86.91
2022-11-10T03:53:49.061Z,87.13
2022-11-10T03:54:50.804Z,86.48
2022-11-10T03:55:52.638Z,87.45
2022-11-10T03:56:54.832Z,87.61
2022-11-10T03:57:56.726Z,86.96
2022-11-10T03:58:58.567Z,87.79
2022-11-10T04:00:00.417Z,87.89
2022-11-10T04:01:02.269Z,87.99
2022-11-10T04:02:04.201Z,88.57
2022-11-10T04:03:06.151Z,88.53
2022-11-10T04:04:31.850Z,87.35
2022-11-10T04:05:51.931Z,87.22
2022-11-10T04:07:12.372Z,86.79
2022-11-10T04:08:34.144Z,87.86
2022-11-10T04:09:36.050Z,86.99
2022-11-10T04:10:37.865Z,87.43
2022-11-10T04:11:57.856Z,87.23
2022-11-10T04:13:18.136Z,86.90
2022-11-10T04:14:44.168Z,87.43
2022-11-10T04:15:46.177Z,87.42
2022-11-10T04:16:47.951Z,87.34
2022-11-10T04:17:50.873Z,87.61
2022-11-10T04:18:52.683Z,86.98
2022-11-10T04:19:54.613Z,86.71
2022-11-10T04:20:58.083Z,87.36
2022-11-10T04:21:59.855Z,87.73
2022-11-10T04:23:20.466Z,88.14
2022-11-10T04:24:22.784Z,87.25
2022-11-10T04:25:24.658Z,87.74
2022-11-10T04:26:29.143Z,87.51
2022-11-10T04:27:30.901Z,87.35
2022-11-10T04:28:32.691Z,87.31
2022-11-10T04:29:34.659Z,87.54
2022-11-10T04:30:36.460Z,87.78
2022-11-10T04:31:41.923Z,87.47
2022-11-10T04:32:43.739Z,88.33
2022-11-10T04:33:45.908Z,87.87
2022-11-10T04:34:47.739Z,87.24
2022-11-10T04:35:49.525Z,87.32
2022-11-10T04:36:51.455Z,87.75
2022-11-10T04:37:53.246Z,87.64
2022-11-10T04:38:58.187Z,87.31
2022-11-10T04:40:00.002Z,88.02
2022-11-10T04:41:01.927Z,87.95
2022-11-10T04:42:03.844Z,87.84
2022-11-10T04:43:05.636Z,87.69
2022-11-10T04:44:07.771Z,87.66
2022-11-10T04:45:09.807Z,87.56
2022-11-10T04:46:20.435Z,87.55
2022-11-10T04:47:22.442Z,87.92
2022-11-10T04:48:24.710Z,87.36
2022-11-10T04:49:26.574Z,87.61
2022-11-10T04:50:28.343Z,87.00
2022-11-10T04:51:31.929Z,87.10
2022-11-10T04:52:33.807Z,88.23
2022-11-10T04:53:35.643Z,88.20
2022-11-10T04:54:37.403Z,87.48
2022-11-10T04:55:39.859Z,88.01
2022-11-10T04:56:41.750Z,88.52
2022-11-10T04:57:43.543Z,88.26
2022-11-10T04:58:45.934Z,89.14
2022-11-10T04:59:47.758Z,88.26
2022-11-10T05:00:49.561Z,88.14
2022-11-10T05:01:51.366Z,88.20
2022-11-10T05:02:53.177Z,88.20
2022-11-10T05:03:55.446Z,89.25
2022-11-10T05:04:57.332Z,88.95
2022-11-10T05:05:59.179Z,89.30
2022-11-10T05:07:01.094Z,89.24
2022-11-10T05:08:03.808Z,88.75
2022-11-10T05:09:05.728Z,88.94
2022-11-10T05:10:07.658Z,89.33
2022-11-10T05:11:09.530Z,89.47
2022-11-10T05:12:11.334Z,88.82
2022-11-10T05:13:13.158Z,89.11
2022-11-10T05:14:15.007Z,88.82
2022-11-10T05:15:16.789Z,89.33
2022-11-10T05:16:18.633Z,88.88
2022-11-10T05:17:20.481Z,89.19
2022-11-10T05:18:22.236Z,88.78
2022-11-10T05:19:24.151Z,89.33
2022-11-10T05:20:26.155Z,89.85
2022-11-10T05:21:27.975Z,89.48
2022-11-10T05:22:29.755Z,89.67
2022-11-10T05:23:40.878Z,89.01
2022-11-10T05:24:42.790Z,89.16
2022-11-10T05:25:45.106Z,88.99
2022-11-10T05:26:46.858Z,89.41
2022-11-10T05:27:48.676Z,89.26
2022-11-10T05:28:50.519Z,89.36
2022-11-10T05:29:52.474Z,89.18
2022-11-10T05:30:54.309Z,89.15
2022-11-10T05:31:56.159Z,88.78
2022-11-10T05:32:58.186Z,89.38
2022-11-10T05:33:59.987Z,89.26
2022-11-10T05:35:01.854Z,88.69
2022-11-10T05:36:04.365Z,88.52
2022-11-10T05:37:06.147Z,89.22
2022-11-10T05:38:08.331Z,89.54
2022-11-10T05:39:10.096Z,89.01
2022-11-10T05:40:12.013Z,88.91
2022-11-10T05:41:13.813Z,88.82
2022-11-10T05:42:15.688Z,88.84
2022-11-10T05:43:17.526Z,88.94
2022-11-10T05:44:19.418Z,88.96
2022-11-10T05:45:22.711Z,88.58
2022-11-10T05:46:24.483Z,88.51
2022-11-10T05:47:26.232Z,88.42
2022-11-10T05:48:28.066Z,88.62
2022-11-10T05:49:29.852Z,88.25
2022-11-10T05:50:31.739Z,89.01
2022-11-10T05:51:33.593Z,88.95
2022-11-10T05:52:35.797Z,88.79
2022-11-10T05:53:37.590Z,88.26
2022-11-10T05:54:39.407Z,88.56
2022-11-10T05:55:41.378Z,88.47
2022-11-10T05:56:43.213Z,89.13
2022-11-10T05:57:46.017Z,88.35
2022-11-10T05:58:47.804Z,89.12
2022-11-10T05:59:49.733Z,88.84
2022-11-10T06:00:51.617Z,88.51
2022-11-10T06:01:53.451Z,88.52
2022-11-10T06:03:01.445Z,88.66
2022-11-10T06:04:03.316Z,88.72
2022-11-10T06:05:05.374Z,89.29
2022-11-10T06:06:07.347Z,89.25
2022-11-10T06:07:09.309Z,89.23
2022-11-10T06:08:11.701Z,89.32
2022-11-10T06:09:13.703Z,88.71
2022-11-10T06:10:15.711Z,88.44
2022-11-10T06:11:17.621Z,88.47
2022-11-10T06:12:19.456Z,89.35
2022-11-10T06:13:21.659Z,88.44
2022-11-10T06:14:23.762Z,87.96
2022-11-10T06:15:26.047Z,88.51
2022-11-10T06:16:27.947Z,88.59
2022-11-10T06:17:29.865Z,89.34
2022-11-10T06:18:31.735Z,88.65
2022-11-10T06:19:33.620Z,88.91
2022-11-10T06:20:35.470Z,88.88
2022-11-10T06:21:37.323Z,88.25
2022-11-10T06:22:39.191Z,88.70
2022-11-10T06:23:40.999Z,88.32
2022-11-10T06:24:42.793Z,88.59
2022-11-10T06:25:44.879Z,88.26
2022-11-10T06:26:46.613Z,88.81
2022-11-10T06:27:48.394Z,88.72
2022-11-10T06:28:50.327Z,88.88
2022-11-10T06:29:52.147Z,88.25
2022-11-10T06:30:56.985Z,88.81
2022-11-10T06:31:58.771Z,89.38
2022-11-10T06:33:00.858Z,88.54
2022-11-10T06:34:02.818Z,89.23
2022-11-10T06:35:04.737Z,89.01
2022-11-10T06:36:06.741Z,89.27
2022-11-10T06:37:08.515Z,89.24
2022-11-10T06:38:12.255Z,88.21
2022-11-10T06:39:14.215Z,89.02
2022-11-10T06:40:16.050Z,89.27
2022-11-10T06:41:21.283Z,89.11
2022-11-10T06:42:25.939Z,89.04
2022-11-10T06:43:28.061Z,88.62
2022-11-10T06:44:30.002Z,88.66
2022-11-10T06:45:31.788Z,88.49
2022-11-10T06:46:35.932Z,88.57
2022-11-10T06:47:41.431Z,89.21
2022-11-10T06:48:43.160Z,88.33
2022-11-10T06:49:45.034Z,88.33
2022-11-10T06:50:47.096Z,88.46
2022-11-10T06:51:49.136Z,89.20
2022-11-10T06:52:55.684Z,89.42
2022-11-10T06:53:57.632Z,90.03
2022-11-10T06:54:59.697Z,89.67
2022-11-10T06:56:01.772Z,89.67
2022-11-10T06:57:03.903Z,89.24
2022-11-10T06:58:06.000Z,89.80
2022-11-10T06:59:07.978Z,89.64
2022-11-10T07:00:11.221Z,89.87
2022-11-10T07:01:14.414Z,89.85
2022-11-10T07:02:18.538Z,89.48
2022-11-10T07:03:20.791Z,89.79
2022-11-10T07:04:22.816Z,89.59
2022-11-10T07:05:24.853Z,90.28
2022-11-10T07:06:26.885Z,90.05
2022-11-10T07:07:29.025Z,89.94
2022-11-10T07:08:31.038Z,89.86
2022-11-10T07:09:32.954Z,89.44
2022-11-10T07:10:35.508Z,90.02
2022-11-10T07:11:37.695Z,90.75
2022-11-10T07:12:39.666Z,89.95
2022-11-10T07:13:42.390Z,90.27
2022-11-10T07:14:44.328Z,90.27
2022-11-10T07:15:46.648Z,89.87
2022-11-10T07:16:48.635Z,90.25
2022-11-10T07:17:50.631Z,90.00
2022-11-10T07:18:52.660Z,89.59
2022-11-10T07:19:54.867Z,89.68
2022-11-10T07:20:56.918Z,89.94
2022-11-10T07:21:59.056Z,89.74
2022-11-10T07:23:02.881Z,90.14
2022-11-10T07:24:05.040Z,89.44
2022-11-10T07:25:07.394Z,89.57
2022-11-10T07:26:09.206Z,89.74
2022-11-10T07:27:11.277Z,89.20
2022-11-10T07:28:13.397Z,89.84
2022-11-10T07:29:15.412Z,89.34
2022-11-10T07:30:17.684Z,89.35
2022-11-10T07:31:19.771Z,89.31
2022-11-10T07:32:21.796Z,89.53
2022-11-10T07:33:24.144Z,89.00
2022-11-10T07:34:26.340Z,89.88
2022-11-10T07:35:29.277Z,90.06
2022-11-10T07:36:31.189Z,89.59
2022-11-10T07:37:32.972Z,89.72
2022-11-10T07:38:34.842Z,88.84
2022-11-10T07:39:36.692Z,89.59
2022-11-10T07:40:38.756Z,89.26
2022-11-10T07:41:40.546Z,89.66
2022-11-10T07:42:42.291Z,89.76
2022-11-10T07:43:44.180Z,89.46
2022-11-10T07:44:46.009Z,90.07
2022-11-10T07:45:49.108Z,90.22
2022-11-10T07:46:52.916Z,90.12
2022-11-10T07:48:05.055Z,90.49
2022-11-10T07:49:07.078Z,90.47
2022-11-10T07:50:09.073Z,90.87
2022-11-10T07:51:10.855Z,89.79
2022-11-10T07:52:12.657Z,90.43
2022-11-10T07:53:15.815Z,90.41
2022-11-10T07:54:17.712Z,89.93
2022-11-10T07:55:19.605Z,90.63
2022-11-10T07:56:22.181Z,90.40
2022-11-10T07:57:24.033Z,90.08
2022-11-10T07:58:25.829Z,90.88
2022-11-10T07:59:27.585Z,89.75
2022-11-10T08:00:29.877Z,90.77
2022-11-10T08:01:31.845Z,90.12
2022-11-10T08:02:33.771Z,90.06
2022-11-10T08:03:35.716Z,91.14
2022-11-10T08:04:37.541Z,90.31
2022-11-10T08:05:39.753Z,90.92
2022-11-10T08:06:41.611Z,90.92
2022-11-10T08:07:45.691Z,91.22
2022-11-10T08:08:48.358Z,91.50
2022-11-10T08:09:50.988Z,91.54
2022-11-10T08:10:52.784Z,90.54
2022-11-10T08:11:54.681Z,90.73
2022-11-10T08:12:57.442Z,91.29
2022-11-10T08:13:59.378Z,90.81
2022-11-10T08:15:01.259Z,91.05
2022-11-10T08:16:03.721Z,90.86
2022-11-10T08:17:05.565Z,90.64
2022-11-10T08:18:15.319Z,90.88
2022-11-10T08:19:17.098Z,91.51
2022-11-10T08:20:18.923Z,91.69
2022-11-10T08:21:21.078Z,91.79
2022-11-10T08:22:22.864Z,91.95
2022-11-10T08:23:24.990Z,91.14
2022-11-10T08:24:27.101Z,91.40
2022-11-10T08:25:34.561Z,91.08
2022-11-10T08:26:37.156Z,91.71
2022-11-10T08:27:38.990Z,91.56
2022-11-10T08:28:40.961Z,91.33
2022-11-10T08:29:42.766Z,90.77
2022-11-10T08:30:45.654Z,91.05
2022-11-10T08:31:47.484Z,91.52
2022-11-10T08:32:49.325Z,90.53
2022-11-10T08:33:51.122Z,91.24
2022-11-10T08:34:53.107Z,91.45
2022-11-10T08:35:55.011Z,91.25
2022-11-10T08:36:56.894Z,91.43
2022-11-10T08:37:58.946Z,91.26
2022-11-10T08:39:00.922Z,90.86
2022-11-10T08:40:04.102Z,91.51
2022-11-10T08:41:05.874Z,91.42
2022-11-10T08:42:07.730Z,91.36
2022-11-10T08:43:10.083Z,90.95
2022-11-10T08:44:15.542Z,91.46
2022-11-10T08:45:21.537Z,91.38
2022-11-10T08:46:23.307Z,91.66
2022-11-10T08:47:25.166Z,91.28
2022-11-10T08:48:26.999Z,91.12
2022-11-10T08:49:28.916Z,91.71
2022-11-10T08:50:30.727Z,91.44
2022-11-10T08:51:37.793Z,91.31
2022-11-10T08:52:40.756Z,91.68
2022-11-10T08:53:42.631Z,91.81
2022-11-10T08:54:44.431Z,91.57
2022-11-10T08:55:46.767Z,91.94
2022-11-10T08:56:48.656Z,92.07
2022-11-10T08:57:50.471Z,92.74
2022-11-10T08:58:53.662Z,92.56
2022-11-10T08:59:55.538Z,92.91
2022-11-10T09:00:57.461Z,93.00
2022-11-10T09:01:59.300Z,92.82
2022-11-10T09:03:05.758Z,93.66
2022-11-10T09:04:07.632Z,93.56
2022-11-10T09:05:09.900Z,92.94
2022-11-10T09:06:11.748Z,93.06
2022-11-10T09:07:13.608Z,92.87
2022-11-10T09:08:15.937Z,92.89
2022-11-10T09:09:17.926Z,92.88
2022-11-10T09:10:19.960Z,93.40
2022-11-10T09:11:24.033Z,92.76
2022-11-10T09:12:25.855Z,93.22
2022-11-10T09:13:30.313Z,92.27
2022-11-10T09:14:32.563Z,92.65
2022-11-10T09:15:34.886Z,92.89
2022-11-10T09:16:36.706Z,92.84
2022-11-10T09:17:38.849Z,92.91
2022-11-10T09:18:40.743Z,92.77
2022-11-10T09:19:42.646Z,92.52
2022-11-10T09:20:44.421Z,92.57
2022-11-10T09:21:46.195Z,92.50
2022-11-10T09:22:48.002Z,92.15
2022-11-10T09:23:49.810Z,92.19
2022-11-10T09:24:51.636Z,92.39
2022-11-10T09:25:54.422Z,92.08
2022-11-10T09:26:56.170Z,92.28
2022-11-10T09:27:57.999Z,92.44
2022-11-10T09:28:59.898Z,92.55
2022-11-10T09:30:01.773Z,92.15
2022-11-10T09:31:03.586Z,92.87
2022-11-10T09:32:05.521Z,92.18
2022-11-10T09:33:07.634Z,92.66
2022-11-10T09:34:10.263Z,92.42
2022-11-10T09:35:13.495Z,92.65
2022-11-10T09:36:15.314Z,92.16
2022-11-10T09:37:17.136Z,92.38
2022-11-10T09:38:19.118Z,92.28
2022-11-10T09:39:21.210Z,92.13
2022-11-10T09:40:25.415Z,92.43
2022-11-10T09:41:30.139Z,92.10
2022-11-10T09:42:34.757Z,92.51
2022-11-10T09:43:45.373Z,92.19
2022-11-10T09:44:52.816Z,92.28
2022-11-10T09:45:55.677Z,92.45
2022-11-10T09:46:57.408Z,92.41
2022-11-10T09:48:02.369Z,92.01
2022-11-10T09:49:10.031Z,92.18
2022-11-10T09:50:15.696Z,92.26
2022-11-10T09:51:20.215Z,92.60
2022-11-10T09:52:22.993Z,92.57
2022-11-10T09:53:45.010Z,92.86
2022-11-10T09:54:53.301Z,93.01
2022-11-10T09:56:03.112Z,92.55
2022-11-10T09:57:06.408Z,92.55
2022-11-10T09:58:09.796Z,93.09
2022-11-10T09:59:17.116Z,92.69
2022-11-10T10:00:19.029Z,92.62
2022-11-10T10:01:39.458Z,93.04
2022-11-10T10:02:49.308Z,93.22
2022-11-10T10:03:57.096Z,93.78
2022-11-10T10:05:01.699Z,93.38
2022-11-10T10:06:11.385Z,93.41
2022-11-10T10:07:15.812Z,93.76
2022-11-10T10:08:26.656Z,93.50
2022-11-10T10:09:28.450Z,92.96
2022-11-10T10:10:33.477Z,92.79
2022-11-10T10:11:35.270Z,92.55
2022-11-10T10:12:52.727Z,93.20
2022-11-10T10:14:13.382Z,93.29
2022-11-10T10:15:29.411Z,93.27
2022-11-10T10:16:34.086Z,93.00
2022-11-10T10:17:41.373Z,92.94
2022-11-10T10:18:55.254Z,93.37
2022-11-10T10:20:04.321Z,92.80
2022-11-10T10:21:06.137Z,93.14
2022-11-10T10:22:13.908Z,92.74
2022-11-10T10:23:54.024Z,92.76
2022-11-10T10:24:53.457Z,93.11
2022-11-10T10:25:55.388Z,93.60
2022-11-10T10:26:58.559Z,93.20
2022-11-10T10:28:05.476Z,93.33
2022-11-10T10:29:11.656Z,93.54
2022-11-10T10:30:18.585Z,93.11
2022-11-10T10:31:21.638Z,92.74
2022-11-10T10:32:23.632Z,92.64
2022-11-10T10:33:25.455Z,92.91
2022-11-10T10:34:31.925Z,92.33
2022-11-10T10:35:39.072Z,92.61
2022-11-10T10:36:44.822Z,92.81
2022-11-10T10:37:50.321Z,92.68
2022-11-10T10:38:54.582Z,92.43
2022-11-10T10:39:56.411Z,92.44
2022-11-10T10:41:00.763Z,92.89
2022-11-10T10:42:02.594Z,92.34
2022-11-10T10:43:04.584Z,92.76
2022-11-10T10:44:14.489Z,92.91
2022-11-10T10:45:26.470Z,92.91
2022-11-10T10:46:34.512Z,92.80
2022-11-10T10:47:40.587Z,93.14
2022-11-10T10:48:42.777Z,92.72
2022-11-10T10:49:44.623Z,92.75
2022-11-10T10:50:48.437Z,93.08
2022-11-10T10:51:53.027Z,93.38
2022-11-10T10:53:13.073Z,93.30
2022-11-10T10:54:28.888Z,93.52
2022-11-10T10:55:31.382Z,93.69
2022-11-10T10:56:33.574Z,93.95
2022-11-10T10:57:35.451Z,93.94
2022-11-10T10:58:50.263Z,94.05
2022-11-10T10:59:52.856Z,93.75
2022-11-10T11:00:57.023Z,93.65
2022-11-10T11:01:58.961Z,93.68
2022-11-10T11:03:05.269Z,93.53
2022-11-10T11:04:26.383Z,93.63
2022-11-10T11:05:28.200Z,93.85
2022-11-10T11:06:30.971Z,93.32
2022-11-10T11:07:32.927Z,93.28
2022-11-10T11:08:34.788Z,93.42
2022-11-10T11:09:42.736Z,93.51
2022-11-10T11:10:45.717Z,93.45
2022-11-10T11:11:59.541Z,94.29
2022-11-10T11:13:14.787Z,94.27
2022-11-10T11:14:17.201Z,94.27
2022-11-10T11:15:19.018Z,94.45
2022-11-10T11:16:20.892Z,94.02
2022-11-10T11:17:23.210Z,94.60
2022-11-10T11:18:26.183Z,94.31
2022-11-10T11:19:32.576Z,94.38
2022-11-10T11:20:54.587Z,93.91
2022-11-10T11:21:59.638Z,94.54
2022-11-10T11:23:07.802Z,94.32
2022-11-10T11:24:18.522Z,93.69
2022-11-10T11:25:30.196Z,93.33
2022-11-10T11:26:43.506Z,93.73
2022-11-10T11:27:59.625Z,94.00
2022-11-10T11:29:19.816Z,94.15
2022-11-10T11:30:22.961Z,94.31
2022-11-10T11:31:27.524Z,93.93
2022-11-10T11:32:48.008Z,94.11
2022-11-10T11:34:05.659Z,93.78
2022-11-10T11:35:31.965Z,94.05
2022-11-10T11:36:36.853Z,93.46
2022-11-10T11:37:41.663Z,94.17
2022-11-10T11:38:56.351Z,94.26
2022-11-10T11:40:05.215Z,94.14
2022-11-10T11:41:13.131Z,94.01
2022-11-10T11:42:35.161Z,94.12
2022-11-10T11:43:37.002Z,93.69
2022-11-10T11:44:44.978Z,93.56
2022-11-10T11:46:00.142Z,93.79
2022-11-10T11:47:14.276Z,93.56
2022-11-10T11:48:34.833Z,93.89
2022-11-10T11:49:39.388Z,93.68
2022-11-10T11:50:51.005Z,93.66
2022-11-10T11:52:02.632Z,94.11
2022-11-10T11:53:16.792Z,93.94
2022-11-10T11:54:41.488Z,94.16
2022-11-10T11:55:43.303Z,94.24
2022-11-10T11:56:47.876Z,94.05
2022-11-10T11:57:54.130Z,93.97
2022-11-10T11:59:08.047Z,94.25
2022-11-10T12:00:10.814Z,94.90
2022-11-10T12:01:38.078Z,94.85
2022-11-10T12:02:58.534Z,95.08
2022-11-10T12:04:15.671Z,95.21
2022-11-10T12:05:20.464Z,94.83
2022-11-10T12:06:22.238Z,94.98
2022-11-10T12:07:40.743Z,94.83
2022-11-10T12:08:54.981Z,94.97
2022-11-10T12:10:15.512Z,95.09
2022-11-10T12:11:23.146Z,95.00
2022-11-10T12:12:24.901Z,94.94
2022-11-10T12:13:26.883Z,94.98
2022-11-10T12:14:49.108Z,95.33
2022-11-10T12:15:52.186Z,95.19
2022-11-10T12:17:03.132Z,95.26
2022-11-10T12:18:08.144Z,95.34
2022-11-10T12:19:09.943Z,95.24
2022-11-10T12:20:35.590Z,95.21
2022-11-10T12:21:46.131Z,95.28
2022-11-10T12:23:01.380Z,95.29
2022-11-10T12:24:17.788Z,95.34
2022-11-10T12:25:19.536Z,95.04
2022-11-10T12:26:32.499Z,95.11
2022-11-10T12:27:35.996Z,95.02
2022-11-10T12:28:44.684Z,95.18
2022-11-10T12:29:51.040Z,94.97
2022-11-10T12:30:59.080Z,95.13
2022-11-10T12:32:07.950Z,94.84
2022-11-10T12:33:17.302Z,94.97
2022-11-10T12:34:40.986Z,94.88
2022-11-10T12:35:44.312Z,94.73
2022-11-10T12:36:46.285Z,94.70
2022-11-10T12:37:50.911Z,94.55
2022-11-10T12:39:00.113Z,94.60
2022-11-10T12:40:05.091Z,94.82
2022-11-10T12:41:14.781Z,94.76
2022-11-10T12:42:20.095Z,94.72
2022-11-10T12:43:31.006Z,94.82
2022-11-10T12:44:39.805Z,94.82
2022-11-10T12:45:46.065Z,95.04
2022-11-10T12:46:52.137Z,95.10
2022-11-10T12:47:55.601Z,95.18
2022-11-10T12:49:02.670Z,95.29
2022-11-10T12:50:10.906Z,95.39
2022-11-10T12:51:15.930Z,95.48
2022-11-10T12:52:21.680Z,95.46
2022-11-10T12:53:24.928Z,95.60
2022-11-10T12:54:28.350Z,95.56
2022-11-10T12:55:36.695Z,95.48
2022-11-10T12:56:40.865Z,95.24
2022-11-10T12:57:44.366Z,95.20
2022-11-10T12:58:46.174Z,95.11
2022-11-10T12:59:56.275Z,95.03
2022-11-10T13:01:00.028Z,95.06
2022-11-10T13:02:03.795Z,95.02
2022-11-10T13:03:06.432Z,95.03
2022-11-10T13:04:08.278Z,95.04
2022-11-10T13:05:16.097Z,94.98
2022-11-10T13:06:36.877Z,94.74
2022-11-10T13:07:38.889Z,94.83
2022-11-10T13:08:43.431Z,94.73
2022-11-10T13:09:45.352Z,94.54
2022-11-10T13:10:52.474Z,94.50
2022-11-10T13:12:12.878Z,94.46
2022-11-10T13:13:15.480Z,94.40
2022-11-10T13:14:23.015Z,94.33
2022-11-10T13:15:37.002Z,94.13
2022-11-10T13:16:41.680Z,94.24
2022-11-10T13:17:43.429Z,94.25
2022-11-10T13:18:45.219Z,94.71
2022-11-10T13:19:48.578Z,94.78
2022-11-10T13:20:51.957Z,94.81
2022-11-10T13:21:53.769Z,95.01
2022-11-10T13:22:55.682Z,95.01
2022-11-10T13:23:57.914Z,94.94
2022-11-10T13:25:18.519Z,94.65
2022-11-10T13:26:55.730Z,95.04
2022-11-10T13:27:57.567Z,94.89
2022-11-10T13:29:00.797Z,95.08
2022-11-10T13:30:02.641Z,95.14
2022-11-10T13:31:23.101Z,95.04
2022-11-10T13:32:25.359Z,95.28
2022-11-10T13:33:31.279Z,95.29
2022-11-10T13:34:37.187Z,95.44
2022-11-10T13:35:39.030Z,95.44
2022-11-10T13:36:44.889Z,95.26
2022-11-10T13:37:50.847Z,95.22
2022-11-10T13:38:52.794Z,95.29
2022-11-10T13:39:54.662Z,95.31
2022-11-10T13:41:12.376Z,95.23
2022-11-10T13:42:19.200Z,94.97
2022-11-10T13:43:25.980Z,95.03
2022-11-10T13:44:38.844Z,94.97
2022-11-10T13:45:40.622Z,94.63
2022-11-10T13:46:52.155Z,94.54
2022-11-10T13:48:02.442Z,94.36
2022-11-10T13:49:22.852Z,94.49